Terminal Aerodrome Forecast
Issued by NWS Northern Indiana

Home | Current Version | Previous Version | Text Only | Print | Product List | Glossary Off
Versions: 1 2 3 4 5 6 7 8 9 10 11 12 13 14 15 16 17 18 19

000
FTUS43 KIWX 290800 AAA
TAFFWA
TAF AMD
KFWA 290853Z 2909/3006 17012G19KT P6SM -SHRA BKN070 WS020/20045KT
      TEMPO 2909/2910 -FZRA
     FM291300 20014KT 4SM BR VCSH OVC040
     FM291600 26012KT 4SM -RASN BR OVC009
     FM292000 30015G23KT P6SM OVC012=

USA.gov is the U.S. government's official web portal to all federal, state and local government web resources and services.